sensor_id;sensor_type;location;lat;lon;timestamp;temperature;humidity
48994;DHT22;34804;49.214;12.276;2023-03-14T00:01:29;9.60;92.90
48994;DHT22;34804;49.214;12.276;2023-03-14T00:03:55;9.50;93.30
48994;DHT22;34804;49.214;12.276;2023-03-14T00:06:23;9.40;93.30
48994;DHT22;34804;49.214;12.276;2023-03-14T00:08:49;9.40;93.60
48994;DHT22;34804;49.214;12.276;2023-03-14T00:11:20;9.40;93.70
48994;DHT22;34804;49.214;12.276;2023-03-14T00:13:51;9.40;93.80
48994;DHT22;34804;49.214;12.276;2023-03-14T00:16:19;9.40;94.00
48994;DHT22;34804;49.214;12.276;2023-03-14T00:18:46;9.30;93.90
48994;DHT22;34804;49.214;12.276;2023-03-14T00:21:13;9.30;93.80
48994;DHT22;34804;49.214;12.276;2023-03-14T00:23:41;9.20;93.60
48994;DHT22;34804;49.214;12.276;2023-03-14T00:26:11;9.10;93.70
48994;DHT22;34804;49.214;12.276;2023-03-14T00:28:39;9.10;94.00
48994;DHT22;34804;49.214;12.276;2023-03-14T00:31:08;9.20;94.50
48994;DHT22;34804;49.214;12.276;2023-03-14T00:33:35;9.10;94.20
48994;DHT22;34804;49.214;12.276;2023-03-14T00:36:13;9.00;94.20
48994;DHT22;34804;49.214;12.276;2023-03-14T00:38:42;8.90;94.10
48994;DHT22;34804;49.214;12.276;2023-03-14T00:41:12;8.90;94.40
48994;DHT22;34804;49.214;12.276;2023-03-14T00:43:39;9.00;94.50
48994;DHT22;34804;49.214;12.276;2023-03-14T00:46:06;9.00;94.70
48994;DHT22;34804;49.214;12.276;2023-03-14T00:48:33;9.20;94.90
48994;DHT22;34804;49.214;12.276;2023-03-14T00:51:01;9.20;95.00
48994;DHT22;34804;49.214;12.276;2023-03-14T00:53:28;9.30;95.00
48994;DHT22;34804;49.214;12.276;2023-03-14T00:55:55;9.20;94.80
48994;DHT22;34804;49.214;12.276;2023-03-14T00:58:22;9.20;94.70
48994;DHT22;34804;49.214;12.276;2023-03-14T01:00:48;9.30;94.20
48994;DHT22;34804;49.214;12.276;2023-03-14T01:03:15;9.40;93.60
48994;DHT22;34804;49.214;12.276;2023-03-14T01:05:42;9.40;93.50
48994;DHT22;34804;49.214;12.276;2023-03-14T01:08:09;9.40;93.40
48994;DHT22;34804;49.214;12.276;2023-03-14T01:10:39;9.40;93.40
48994;DHT22;34804;49.214;12.276;2023-03-14T01:13:07;9.50;93.20
48994;DHT22;34804;49.214;12.276;2023-03-14T01:15:36;9.50;92.80
48994;DHT22;34804;49.214;12.276;2023-03-14T01:18:03;9.60;92.90
48994;DHT22;34804;49.214;12.276;2023-03-14T01:20:30;9.70;92.80
48994;DHT22;34804;49.214;12.276;2023-03-14T01:22:57;9.70;92.50
48994;DHT22;34804;49.214;12.276;2023-03-14T01:25:24;9.90;91.90
48994;DHT22;34804;49.214;12.276;2023-03-14T01:27:51;9.90;91.80
48994;DHT22;34804;49.214;12.276;2023-03-14T01:30:18;9.80;92.50
48994;DHT22;34804;49.214;12.276;2023-03-14T01:32:44;9.70;92.70
48994;DHT22;34804;49.214;12.276;2023-03-14T01:35:11;9.70;93.00
48994;DHT22;34804;49.214;12.276;2023-03-14T01:37:38;9.60;93.10
48994;DHT22;34804;49.214;12.276;2023-03-14T01:40:05;9.60;93.40
48994;DHT22;34804;49.214;12.276;2023-03-14T01:42:32;9.50;93.40
48994;DHT22;34804;49.214;12.276;2023-03-14T01:45:01;9.40;93.40
48994;DHT22;34804;49.214;12.276;2023-03-14T01:47:28;9.40;93.30
48994;DHT22;34804;49.214;12.276;2023-03-14T01:49:57;9.40;93.30
48994;DHT22;34804;49.214;12.276;2023-03-14T01:52:31;9.40;93.20
48994;DHT22;34804;49.214;12.276;2023-03-14T01:55:05;9.40;92.80
48994;DHT22;34804;49.214;12.276;2023-03-14T01:57:41;9.40;93.00
48994;DHT22;34804;49.214;12.276;2023-03-14T02:00:12;9.40;93.00
48994;DHT22;34804;49.214;12.276;2023-03-14T02:02:48;9.40;92.30
48994;DHT22;34804;49.214;12.276;2023-03-14T02:05:34;9.40;92.40
48994;DHT22;34804;49.214;12.276;2023-03-14T02:08:04;9.40;92.50
48994;DHT22;34804;49.214;12.276;2023-03-14T02:10:38;9.30;92.70
48994;DHT22;34804;49.214;12.276;2023-03-14T02:13:06;9.30;92.90
48994;DHT22;34804;49.214;12.276;2023-03-14T02:15:34;9.30;93.30
48994;DHT22;34804;49.214;12.276;2023-03-14T02:18:02;9.30;93.40
48994;DHT22;34804;49.214;12.276;2023-03-14T02:20:41;9.30;93.40
48994;DHT22;34804;49.214;12.276;2023-03-14T02:23:15;9.30;93.50
48994;DHT22;34804;49.214;12.276;2023-03-14T02:25:53;9.20;93.90
48994;DHT22;34804;49.214;12.276;2023-03-14T02:28:22;9.20;93.70
48994;DHT22;34804;49.214;12.276;2023-03-14T02:30:50;9.20;94.00
48994;DHT22;34804;49.214;12.276;2023-03-14T02:33:19;9.20;94.00
48994;DHT22;34804;49.214;12.276;2023-03-14T02:35:51;9.20;94.10
48994;DHT22;34804;49.214;12.276;2023-03-14T02:41:23;9.20;93.90
48994;DHT22;34804;49.214;12.276;2023-03-14T02:43:49;9.20;94.00
48994;DHT22;34804;49.214;12.276;2023-03-14T02:46:19;9.20;93.90
48994;DHT22;34804;49.214;12.276;2023-03-14T02:48:53;9.10;94.00
48994;DHT22;34804;49.214;12.276;2023-03-14T02:51:21;9.20;94.00
48994;DHT22;34804;49.214;12.276;2023-03-14T02:53:49;9.10;94.10
48994;DHT22;34804;49.214;12.276;2023-03-14T02:56:16;9.10;93.80
48994;DHT22;34804;49.214;12.276;2023-03-14T02:58:42;9.10;93.70
48994;DHT22;34804;49.214;12.276;2023-03-14T03:01:09;9.10;93.70
48994;DHT22;34804;49.214;12.276;2023-03-14T03:03:36;9.10;93.80
48994;DHT22;34804;49.214;12.276;2023-03-14T03:06:03;9.10;93.80
48994;DHT22;34804;49.214;12.276;2023-03-14T03:08:31;9.10;93.90
48994;DHT22;34804;49.214;12.276;2023-03-14T03:10:58;9.10;93.70
48994;DHT22;34804;49.214;12.276;2023-03-14T03:13:25;9.10;93.50
48994;DHT22;34804;49.214;12.276;2023-03-14T03:15:53;9.00;93.40
48994;DHT22;34804;49.214;12.276;2023-03-14T03:18:20;9.00;93.30
48994;DHT22;34804;49.214;12.276;2023-03-14T03:20:47;8.90;93.20
48994;DHT22;34804;49.214;12.276;2023-03-14T03:23:13;9.00;92.80
48994;DHT22;34804;49.214;12.276;2023-03-14T03:25:40;9.00;92.60
48994;DHT22;34804;49.214;12.276;2023-03-14T03:28:07;9.00;92.60
48994;DHT22;34804;49.214;12.276;2023-03-14T03:30:39;9.00;92.60
48994;DHT22;34804;49.214;12.276;2023-03-14T03:33:06;9.00;92.60
48994;DHT22;34804;49.214;12.276;2023-03-14T03:35:33;9.00;92.60
48994;DHT22;34804;49.214;12.276;2023-03-14T03:38:00;8.90;92.50
48994;DHT22;34804;49.214;12.276;2023-03-14T03:40:27;8.90;92.60
48994;DHT22;34804;49.214;12.276;2023-03-14T03:42:54;8.90;92.90
48994;DHT22;34804;49.214;12.276;2023-03-14T03:45:21;8.80;93.10
48994;DHT22;34804;49.214;12.276;2023-03-14T03:47:47;8.80;93.20
48994;DHT22;34804;49.214;12.276;2023-03-14T03:50:14;8.80;93.20
48994;DHT22;34804;49.214;12.276;2023-03-14T03:52:41;8.80;93.50
48994;DHT22;34804;49.214;12.276;2023-03-14T03:55:08;8.80;93.50
48994;DHT22;34804;49.214;12.276;2023-03-14T03:57:35;8.80;93.60
48994;DHT22;34804;49.214;12.276;2023-03-14T04:00:03;8.80;93.30
48994;DHT22;34804;49.214;12.276;2023-03-14T04:02:32;8.80;93.30
48994;DHT22;34804;49.214;12.276;2023-03-14T04:04:59;8.70;93.20
48994;DHT22;34804;49.214;12.276;2023-03-14T04:07:26;8.70;92.90
48994;DHT22;34804;49.214;12.276;2023-03-14T04:09:52;8.60;92.80
48994;DHT22;34804;49.214;12.276;2023-03-14T04:12:19;8.70;92.80
48994;DHT22;34804;49.214;12.276;2023-03-14T04:14:46;8.60;92.90
48994;DHT22;34804;49.214;12.276;2023-03-14T04:17:13;8.60;92.70
48994;DHT22;34804;49.214;12.276;2023-03-14T04:19:40;8.60;92.70
48994;DHT22;34804;49.214;12.276;2023-03-14T04:22:07;8.60;92.80
48994;DHT22;34804;49.214;12.276;2023-03-14T04:24:34;8.50;92.90
48994;DHT22;34804;49.214;12.276;2023-03-14T04:27:01;8.50;93.00
48994;DHT22;34804;49.214;12.276;2023-03-14T04:29:28;8.50;93.10
48994;DHT22;34804;49.214;12.276;2023-03-14T04:31:55;8.50;92.90
48994;DHT22;34804;49.214;12.276;2023-03-14T04:34:21;8.40;93.00
48994;DHT22;34804;49.214;12.276;2023-03-14T04:36:48;8.40;93.00
48994;DHT22;34804;49.214;12.276;2023-03-14T04:39:15;8.40;93.10
48994;DHT22;34804;49.214;12.276;2023-03-14T04:41:42;8.30;93.20
48994;DHT22;34804;49.214;12.276;2023-03-14T04:44:08;8.30;93.10
48994;DHT22;34804;49.214;12.276;2023-03-14T04:46:35;8.40;92.80
48994;DHT22;34804;49.214;12.276;2023-03-14T04:49:02;8.40;92.60
48994;DHT22;34804;49.214;12.276;2023-03-14T04:51:29;8.40;92.50
48994;DHT22;34804;49.214;12.276;2023-03-14T04:53:55;8.40;92.40
48994;DHT22;34804;49.214;12.276;2023-03-14T04:56:22;8.40;92.40
48994;DHT22;34804;49.214;12.276;2023-03-14T04:58:49;8.40;92.50
48994;DHT22;34804;49.214;12.276;2023-03-14T05:01:16;8.40;92.40
48994;DHT22;34804;49.214;12.276;2023-03-14T05:03:44;8.40;92.40
48994;DHT22;34804;49.214;12.276;2023-03-14T05:06:11;8.40;92.50
48994;DHT22;34804;49.214;12.276;2023-03-14T05:08:38;8.30;92.60
48994;DHT22;34804;49.214;12.276;2023-03-14T05:11:05;8.30;92.60
48994;DHT22;34804;49.214;12.276;2023-03-14T05:13:31;8.30;92.70
48994;DHT22;34804;49.214;12.276;2023-03-14T05:16:06;8.40;92.50
48994;DHT22;34804;49.214;12.276;2023-03-14T05:18:33;8.40;92.50
48994;DHT22;34804;49.214;12.276;2023-03-14T05:21:01;8.30;92.50
48994;DHT22;34804;49.214;12.276;2023-03-14T05:23:28;8.30;92.60
48994;DHT22;34804;49.214;12.276;2023-03-14T05:25:55;8.30;92.50
48994;DHT22;34804;49.214;12.276;2023-03-14T05:28:22;8.40;92.40
48994;DHT22;34804;49.214;12.276;2023-03-14T05:30:49;8.40;92.30
48994;DHT22;34804;49.214;12.276;2023-03-14T05:33:15;8.40;91.90
48994;DHT22;34804;49.214;12.276;2023-03-14T05:35:42;8.40;92.10
48994;DHT22;34804;49.214;12.276;2023-03-14T05:38:09;8.40;92.00
48994;DHT22;34804;49.214;12.276;2023-03-14T05:40:36;8.40;92.10
48994;DHT22;34804;49.214;12.276;2023-03-14T05:43:03;8.40;92.10
48994;DHT22;34804;49.214;12.276;2023-03-14T05:45:30;8.40;91.90
48994;DHT22;34804;49.214;12.276;2023-03-14T05:48:00;8.40;91.90
48994;DHT22;34804;49.214;12.276;2023-03-14T05:50:26;8.40;91.70
48994;DHT22;34804;49.214;12.276;2023-03-14T05:52:53;8.40;91.70
48994;DHT22;34804;49.214;12.276;2023-03-14T05:55:20;8.40;91.70
48994;DHT22;34804;49.214;12.276;2023-03-14T05:57:47;8.40;91.70
48994;DHT22;34804;49.214;12.276;2023-03-14T06:00:14;8.40;91.90
48994;DHT22;34804;49.214;12.276;2023-03-14T06:02:40;8.40;92.00
48994;DHT22;34804;49.214;12.276;2023-03-14T06:05:07;8.40;92.10
48994;DHT22;34804;49.214;12.276;2023-03-14T06:07:34;8.30;92.10
48994;DHT22;34804;49.214;12.276;2023-03-14T06:10:01;8.30;92.20
48994;DHT22;34804;49.214;12.276;2023-03-14T06:12:28;8.30;92.20
48994;DHT22;34804;49.214;12.276;2023-03-14T06:14:55;8.30;92.20
48994;DHT22;34804;49.214;12.276;2023-03-14T06:17:22;8.30;92.20
48994;DHT22;34804;49.214;12.276;2023-03-14T06:19:48;8.30;92.30
48994;DHT22;34804;49.214;12.276;2023-03-14T06:22:15;8.30;92.20
48994;DHT22;34804;49.214;12.276;2023-03-14T06:24:42;8.40;91.70
48994;DHT22;34804;49.214;12.276;2023-03-14T06:27:09;8.40;91.80
48994;DHT22;34804;49.214;12.276;2023-03-14T06:29:35;8.40;91.90
48994;DHT22;34804;49.214;12.276;2023-03-14T06:32:02;8.40;91.80
48994;DHT22;34804;49.214;12.276;2023-03-14T06:34:29;8.50;91.60
48994;DHT22;34804;49.214;12.276;2023-03-14T06:36:56;8.40;91.70
48994;DHT22;34804;49.214;12.276;2023-03-14T06:39:23;8.40;91.60
48994;DHT22;34804;49.214;12.276;2023-03-14T06:41:49;8.50;91.30
48994;DHT22;34804;49.214;12.276;2023-03-14T06:44:16;8.50;91.10
48994;DHT22;34804;49.214;12.276;2023-03-14T06:46:43;8.60;90.80
48994;DHT22;34804;49.214;12.276;2023-03-14T06:49:10;8.60;90.50
48994;DHT22;34804;49.214;12.276;2023-03-14T06:51:36;8.60;90.30
48994;DHT22;34804;49.214;12.276;2023-03-14T06:54:03;8.60;90.40
48994;DHT22;34804;49.214;12.276;2023-03-14T06:56:30;8.60;90.10
48994;DHT22;34804;49.214;12.276;2023-03-14T06:58:57;8.70;90.00
48994;DHT22;34804;49.214;12.276;2023-03-14T07:01:26;8.60;90.30
48994;DHT22;34804;49.214;12.276;2023-03-14T07:03:53;8.60;89.80
48994;DHT22;34804;49.214;12.276;2023-03-14T07:06:20;8.70;90.10
48994;DHT22;34804;49.214;12.276;2023-03-14T07:08:47;8.70;89.90
48994;DHT22;34804;49.214;12.276;2023-03-14T07:11:14;8.70;90.10
48994;DHT22;34804;49.214;12.276;2023-03-14T07:13:41;8.70;90.30
48994;DHT22;34804;49.214;12.276;2023-03-14T07:16:08;8.70;90.10
48994;DHT22;34804;49.214;12.276;2023-03-14T07:18:35;8.70;90.00
48994;DHT22;34804;49.214;12.276;2023-03-14T07:21:05;8.70;90.10
48994;DHT22;34804;49.214;12.276;2023-03-14T07:23:33;8.70;89.60
48994;DHT22;34804;49.214;12.276;2023-03-14T07:26:00;8.80;89.60
48994;DHT22;34804;49.214;12.276;2023-03-14T07:28:27;8.70;89.70
48994;DHT22;34804;49.214;12.276;2023-03-14T07:30:54;8.70;89.50
48994;DHT22;34804;49.214;12.276;2023-03-14T07:33:21;8.80;89.30
48994;DHT22;34804;49.214;12.276;2023-03-14T07:35:49;8.80;89.30
48994;DHT22;34804;49.214;12.276;2023-03-14T07:38:16;8.80;89.10
48994;DHT22;34804;49.214;12.276;2023-03-14T07:40:43;8.80;89.00
48994;DHT22;34804;49.214;12.276;2023-03-14T07:43:10;8.80;89.10
48994;DHT22;34804;49.214;12.276;2023-03-14T07:45:36;8.80;89.40
48994;DHT22;34804;49.214;12.276;2023-03-14T07:48:08;8.90;88.80
48994;DHT22;34804;49.214;12.276;2023-03-14T07:50:36;8.90;88.90
48994;DHT22;34804;49.214;12.276;2023-03-14T07:53:03;8.80;88.30
48994;DHT22;34804;49.214;12.276;2023-03-14T07:55:30;8.80;88.90
48994;DHT22;34804;49.214;12.276;2023-03-14T07:57:56;8.90;88.80
48994;DHT22;34804;49.214;12.276;2023-03-14T08:00:23;8.90;88.70
48994;DHT22;34804;49.214;12.276;2023-03-14T08:02:50;8.90;88.50
48994;DHT22;34804;49.214;12.276;2023-03-14T08:05:17;8.90;88.50
48994;DHT22;34804;49.214;12.276;2023-03-14T08:07:43;8.90;88.50
48994;DHT22;34804;49.214;12.276;2023-03-14T08:10:10;8.90;88.00
48994;DHT22;34804;49.214;12.276;2023-03-14T08:12:38;8.90;87.50
48994;DHT22;34804;49.214;12.276;2023-03-14T08:15:05;8.90;87.90
48994;DHT22;34804;49.214;12.276;2023-03-14T08:17:32;8.90;87.50
48994;DHT22;34804;49.214;12.276;2023-03-14T08:19:59;8.90;87.30
48994;DHT22;34804;49.214;12.276;2023-03-14T08:22:26;8.90;87.30
48994;DHT22;34804;49.214;12.276;2023-03-14T08:24:52;9.00;87.80
48994;DHT22;34804;49.214;12.276;2023-03-14T08:27:19;9.00;87.20
48994;DHT22;34804;49.214;12.276;2023-03-14T08:29:46;9.00;87.60
48994;DHT22;34804;49.214;12.276;2023-03-14T08:32:13;9.00;87.10
48994;DHT22;34804;49.214;12.276;2023-03-14T08:34:39;9.10;86.00
48994;DHT22;34804;49.214;12.276;2023-03-14T08:37:06;9.10;87.10
48994;DHT22;34804;49.214;12.276;2023-03-14T08:39:49;9.20;86.70
48994;DHT22;34804;49.214;12.276;2023-03-14T08:42:16;9.20;85.70
48994;DHT22;34804;49.214;12.276;2023-03-14T08:44:43;9.20;85.50
48994;DHT22;34804;49.214;12.276;2023-03-14T08:47:10;9.30;85.60
48994;DHT22;34804;49.214;12.276;2023-03-14T08:49:37;9.40;86.00
48994;DHT22;34804;49.214;12.276;2023-03-14T08:52:04;9.40;86.40
48994;DHT22;34804;49.214;12.276;2023-03-14T08:54:47;9.50;84.20
48994;DHT22;34804;49.214;12.276;2023-03-14T08:57:14;9.60;85.40
48994;DHT22;34804;49.214;12.276;2023-03-14T08:59:41;9.60;84.80
48994;DHT22;34804;49.214;12.276;2023-03-14T09:02:12;9.80;84.00
48994;DHT22;34804;49.214;12.276;2023-03-14T09:04:39;9.80;82.90
48994;DHT22;34804;49.214;12.276;2023-03-14T09:07:06;9.90;83.00
48994;DHT22;34804;49.214;12.276;2023-03-14T09:09:33;10.00;82.60
48994;DHT22;34804;49.214;12.276;2023-03-14T09:12:00;10.10;83.00
48994;DHT22;34804;49.214;12.276;2023-03-14T09:14:26;10.10;82.40
48994;DHT22;34804;49.214;12.276;2023-03-14T09:16:53;10.20;81.90
48994;DHT22;34804;49.214;12.276;2023-03-14T09:19:20;10.30;82.30
48994;DHT22;34804;49.214;12.276;2023-03-14T09:21:47;10.30;83.50
48994;DHT22;34804;49.214;12.276;2023-03-14T09:24:15;10.30;82.60
48994;DHT22;34804;49.214;12.276;2023-03-14T09:26:42;10.40;81.90
48994;DHT22;34804;49.214;12.276;2023-03-14T09:29:09;10.40;81.70
48994;DHT22;34804;49.214;12.276;2023-03-14T09:31:36;10.30;80.80
48994;DHT22;34804;49.214;12.276;2023-03-14T09:34:02;10.40;80.90
48994;DHT22;34804;49.214;12.276;2023-03-14T09:36:30;10.50;81.70
48994;DHT22;34804;49.214;12.276;2023-03-14T09:38:56;10.60;81.00
48994;DHT22;34804;49.214;12.276;2023-03-14T09:41:26;10.60;80.30
48994;DHT22;34804;49.214;12.276;2023-03-14T09:46:48;10.80;80.00
48994;DHT22;34804;49.214;12.276;2023-03-14T09:49:31;10.80;79.60
48994;DHT22;34804;49.214;12.276;2023-03-14T09:52:01;10.70;79.90
48994;DHT22;34804;49.214;12.276;2023-03-14T09:54:40;10.70;79.40
48994;DHT22;34804;49.214;12.276;2023-03-14T09:57:19;10.80;80.60
48994;DHT22;34804;49.214;12.276;2023-03-14T09:59:48;10.90;80.40
48994;DHT22;34804;49.214;12.276;2023-03-14T10:02:24;11.00;80.10
48994;DHT22;34804;49.214;12.276;2023-03-14T10:04:53;11.00;79.80
48994;DHT22;34804;49.214;12.276;2023-03-14T10:07:31;10.90;78.40
48994;DHT22;34804;49.214;12.276;2023-03-14T10:09:59;10.90;79.60
48994;DHT22;34804;49.214;12.276;2023-03-14T10:12:37;10.90;78.70
48994;DHT22;34804;49.214;12.276;2023-03-14T10:15:09;11.00;78.70
48994;DHT22;34804;49.214;12.276;2023-03-14T10:17:46;11.20;80.40
48994;DHT22;34804;49.214;12.276;2023-03-14T10:20:34;11.20;78.30
48994;DHT22;34804;49.214;12.276;2023-03-14T10:23:05;11.30;78.30
48994;DHT22;34804;49.214;12.276;2023-03-14T10:25:35;11.40;77.40
48994;DHT22;34804;49.214;12.276;2023-03-14T10:28:04;11.60;78.80
48994;DHT22;34804;49.214;12.276;2023-03-14T10:30:38;11.80;75.10
48994;DHT22;34804;49.214;12.276;2023-03-14T10:35:45;11.80;75.20
48994;DHT22;34804;49.214;12.276;2023-03-14T10:40:49;11.90;74.50
48994;DHT22;34804;49.214;12.276;2023-03-14T10:43:24;11.90;76.40
48994;DHT22;34804;49.214;12.276;2023-03-14T10:45:54;12.00;75.30
48994;DHT22;34804;49.214;12.276;2023-03-14T10:48:31;11.80;72.60
48994;DHT22;34804;49.214;12.276;2023-03-14T10:53:49;12.00;74.00
48994;DHT22;34804;49.214;12.276;2023-03-14T10:56:19;11.90;73.90
48994;DHT22;34804;49.214;12.276;2023-03-14T10:58:48;11.90;72.40
48994;DHT22;34804;49.214;12.276;2023-03-14T11:07:13;12.20;72.90
48994;DHT22;34804;49.214;12.276;2023-03-14T11:09:50;12.00;72.90
48994;DHT22;34804;49.214;12.276;2023-03-14T11:12:33;11.80;73.90
48994;DHT22;34804;49.214;12.276;2023-03-14T11:15:30;11.80;74.20
48994;DHT22;34804;49.214;12.276;2023-03-14T11:18:43;11.90;74.40
48994;DHT22;34804;49.214;12.276;2023-03-14T11:21:37;11.90;71.80
48994;DHT22;34804;49.214;12.276;2023-03-14T11:24:27;11.90;72.00
48994;DHT22;34804;49.214;12.276;2023-03-14T11:34:54;11.40;73.70
48994;DHT22;34804;49.214;12.276;2023-03-14T11:37:32;11.40;75.00
48994;DHT22;34804;49.214;12.276;2023-03-14T11:40:23;11.40;75.10
48994;DHT22;34804;49.214;12.276;2023-03-14T11:46:03;11.40;76.10
48994;DHT22;34804;49.214;12.276;2023-03-14T11:49:01;11.40;75.20
48994;DHT22;34804;49.214;12.276;2023-03-14T11:51:35;11.50;75.10
48994;DHT22;34804;49.214;12.276;2023-03-14T11:54:18;11.40;74.40
48994;DHT22;34804;49.214;12.276;2023-03-14T11:56:54;11.50;74.80
48994;DHT22;34804;49.214;12.276;2023-03-14T11:59:29;11.50;74.90
48994;DHT22;34804;49.214;12.276;2023-03-14T12:02:33;11.50;74.30
48994;DHT22;34804;49.214;12.276;2023-03-14T12:05:30;11.50;75.20
48994;DHT22;34804;49.214;12.276;2023-03-14T12:10:43;11.70;75.70
48994;DHT22;34804;49.214;12.276;2023-03-14T12:13:13;11.90;74.70
48994;DHT22;34804;49.214;12.276;2023-03-14T12:16:05;12.40;74.70
48994;DHT22;34804;49.214;12.276;2023-03-14T12:18:36;12.80;72.30
48994;DHT22;34804;49.214;12.276;2023-03-14T12:21:10;13.50;69.50
48994;DHT22;34804;49.214;12.276;2023-03-14T12:23:41;13.80;70.10
48994;DHT22;34804;49.214;12.276;2023-03-14T12:28:43;13.40;69.00
48994;DHT22;34804;49.214;12.276;2023-03-14T12:42:11;12.50;72.40
48994;DHT22;34804;49.214;12.276;2023-03-14T12:44:40;12.30;71.70
48994;DHT22;34804;49.214;12.276;2023-03-14T12:49:51;12.10;73.80
48994;DHT22;34804;49.214;12.276;2023-03-14T12:52:21;12.00;73.40
48994;DHT22;34804;49.214;12.276;2023-03-14T13:00:32;11.40;77.30
48994;DHT22;34804;49.214;12.276;2023-03-14T13:03:12;11.10;81.20
48994;DHT22;34804;49.214;12.276;2023-03-14T13:05:52;11.10;81.10
48994;DHT22;34804;49.214;12.276;2023-03-14T13:08:40;11.40;81.50
48994;DHT22;34804;49.214;12.276;2023-03-14T13:11:16;11.50;79.10
48994;DHT22;34804;49.214;12.276;2023-03-14T13:13:52;11.60;80.80
48994;DHT22;34804;49.214;12.276;2023-03-14T13:16:23;11.60;78.30
48994;DHT22;34804;49.214;12.276;2023-03-14T13:19:02;11.40;78.70
48994;DHT22;34804;49.214;12.276;2023-03-14T13:21:35;11.60;79.10
48994;DHT22;34804;49.214;12.276;2023-03-14T13:24:06;11.70;78.40
48994;DHT22;34804;49.214;12.276;2023-03-14T13:26:40;11.80;77.90
48994;DHT22;34804;49.214;12.276;2023-03-14T13:29:20;12.00;76.70
48994;DHT22;34804;49.214;12.276;2023-03-14T13:31:55;12.20;79.30
48994;DHT22;34804;49.214;12.276;2023-03-14T13:34:28;12.40;75.80
48994;DHT22;34804;49.214;12.276;2023-03-14T13:36:55;12.40;76.00
48994;DHT22;34804;49.214;12.276;2023-03-14T13:39:24;12.40;77.30
48994;DHT22;34804;49.214;12.276;2023-03-14T13:41:53;12.30;76.80
48994;DHT22;34804;49.214;12.276;2023-03-14T13:44:38;12.30;77.00
48994;DHT22;34804;49.214;12.276;2023-03-14T13:47:12;12.10;76.30
48994;DHT22;34804;49.214;12.276;2023-03-14T13:49:40;12.00;80.00
48994;DHT22;34804;49.214;12.276;2023-03-14T13:52:29;11.90;79.40
48994;DHT22;34804;49.214;12.276;2023-03-14T13:54:57;11.80;79.00
48994;DHT22;34804;49.214;12.276;2023-03-14T13:57:49;12.60;80.00
48994;DHT22;34804;49.214;12.276;2023-03-14T14:00:26;12.60;77.70
48994;DHT22;34804;49.214;12.276;2023-03-14T14:02:55;12.30;80.10
48994;DHT22;34804;49.214;12.276;2023-03-14T14:05:23;12.20;81.30
48994;DHT22;34804;49.214;12.276;2023-03-14T14:07:52;11.90;81.70
48994;DHT22;34804;49.214;12.276;2023-03-14T14:10:19;11.70;81.50
48994;DHT22;34804;49.214;12.276;2023-03-14T14:12:57;11.40;81.50
48994;DHT22;34804;49.214;12.276;2023-03-14T14:15:27;11.30;82.30
48994;DHT22;34804;49.214;12.276;2023-03-14T14:17:57;11.20;82.40
48994;DHT22;34804;49.214;12.276;2023-03-14T14:20:33;10.90;84.20
48994;DHT22;34804;49.214;12.276;2023-03-14T14:23:03;10.50;84.30
48994;DHT22;34804;49.214;12.276;2023-03-14T14:25:32;10.30;86.70
48994;DHT22;34804;49.214;12.276;2023-03-14T14:28:13;10.00;87.40
48994;DHT22;34804;49.214;12.276;2023-03-14T14:30:40;9.90;87.00
48994;DHT22;34804;49.214;12.276;2023-03-14T14:33:19;9.70;87.70
48994;DHT22;34804;49.214;12.276;2023-03-14T14:35:57;9.70;88.50
48994;DHT22;34804;49.214;12.276;2023-03-14T14:38:24;9.70;88.20
48994;DHT22;34804;49.214;12.276;2023-03-14T14:40:54;9.90;88.30
48994;DHT22;34804;49.214;12.276;2023-03-14T14:43:24;9.90;87.60
48994;DHT22;34804;49.214;12.276;2023-03-14T14:45:54;9.80;87.80
48994;DHT22;34804;49.214;12.276;2023-03-14T14:48:24;9.80;87.90
48994;DHT22;34804;49.214;12.276;2023-03-14T14:53:30;9.70;87.60
48994;DHT22;34804;49.214;12.276;2023-03-14T14:56:04;9.60;88.00
48994;DHT22;34804;49.214;12.276;2023-03-14T14:58:40;9.50;88.20
48994;DHT22;34804;49.214;12.276;2023-03-14T15:01:34;9.40;88.70
48994;DHT22;34804;49.214;12.276;2023-03-14T15:03:58;9.40;89.40
48994;DHT22;34804;49.214;12.276;2023-03-14T15:06:28;9.30;89.20
48994;DHT22;34804;49.214;12.276;2023-03-14T15:08:55;9.30;89.40
48994;DHT22;34804;49.214;12.276;2023-03-14T15:11:25;9.30;88.90
48994;DHT22;34804;49.214;12.276;2023-03-14T15:13:53;9.30;89.40
48994;DHT22;34804;49.214;12.276;2023-03-14T15:16:28;9.30;89.50
48994;DHT22;34804;49.214;12.276;2023-03-14T15:18:59;9.30;89.40
48994;DHT22;34804;49.214;12.276;2023-03-14T15:21:32;9.20;89.80
48994;DHT22;34804;49.214;12.276;2023-03-14T15:23:59;9.20;88.70
48994;DHT22;34804;49.214;12.276;2023-03-14T15:26:27;9.20;88.60
48994;DHT22;34804;49.214;12.276;2023-03-14T15:28:54;9.20;87.90
48994;DHT22;34804;49.214;12.276;2023-03-14T15:31:21;9.30;87.80
48994;DHT22;34804;49.214;12.276;2023-03-14T15:33:48;9.30;87.80
48994;DHT22;34804;49.214;12.276;2023-03-14T15:36:25;9.20;88.80
48994;DHT22;34804;49.214;12.276;2023-03-14T15:38:53;9.20;88.60
48994;DHT22;34804;49.214;12.276;2023-03-14T15:41:21;9.20;87.70
48994;DHT22;34804;49.214;12.276;2023-03-14T15:43:48;9.10;88.70
48994;DHT22;34804;49.214;12.276;2023-03-14T15:46:16;9.00;90.00
48994;DHT22;34804;49.214;12.276;2023-03-14T15:48:45;8.80;91.00
48994;DHT22;34804;49.214;12.276;2023-03-14T15:51:12;8.70;90.20
48994;DHT22;34804;49.214;12.276;2023-03-14T15:53:39;8.30;87.60
48994;DHT22;34804;49.214;12.276;2023-03-14T15:56:09;8.20;85.60
48994;DHT22;34804;49.214;12.276;2023-03-14T15:58:38;8.10;85.70
48994;DHT22;34804;49.214;12.276;2023-03-14T16:01:09;8.00;85.70
48994;DHT22;34804;49.214;12.276;2023-03-14T16:03:36;7.90;86.80
48994;DHT22;34804;49.214;12.276;2023-03-14T16:06:04;7.80;86.50
48994;DHT22;34804;49.214;12.276;2023-03-14T16:08:31;7.80;86.90
48994;DHT22;34804;49.214;12.276;2023-03-14T16:10:58;7.80;87.60
48994;DHT22;34804;49.214;12.276;2023-03-14T16:13:26;7.80;86.90
48994;DHT22;34804;49.214;12.276;2023-03-14T16:15:56;7.70;86.10
48994;DHT22;34804;49.214;12.276;2023-03-14T16:18:23;7.60;85.40
48994;DHT22;34804;49.214;12.276;2023-03-14T16:20:54;7.40;84.70
48994;DHT22;34804;49.214;12.276;2023-03-14T16:23:21;7.40;84.60
48994;DHT22;34804;49.214;12.276;2023-03-14T16:25:49;7.40;85.30
48994;DHT22;34804;49.214;12.276;2023-03-14T16:28:15;7.40;84.30
48994;DHT22;34804;49.214;12.276;2023-03-14T16:30:42;7.40;84.30
48994;DHT22;34804;49.214;12.276;2023-03-14T16:33:09;7.40;84.00
48994;DHT22;34804;49.214;12.276;2023-03-14T16:35:57;7.40;82.90
48994;DHT22;34804;49.214;12.276;2023-03-14T16:38:27;7.30;84.30
48994;DHT22;34804;49.214;12.276;2023-03-14T16:41:01;7.30;82.40
48994;DHT22;34804;49.214;12.276;2023-03-14T16:43:29;7.30;82.60